Terminal Aerodrome Forecast
Issued by NWS Charleston, WV

Current Version | Previous Version | Graphics & Text | Print | Product List | Glossary On
Versions: 1 2 3 4 5 6 7 8 9 10 11 12 13 14 15 16 17 18 19 20 21 22 23
000
FTUS41 KRLX 032300
TAFBKW
TAF
KBKW 032327Z 0400/0424 20009KT P6SM OVC015
     FM040600 22009KT 4SM BR OVC008
     FM040800 24008KT 3SM -RA BR OVC008
     FM041000 26007KT 2SM -RA BR OVC005
     FM041500 32006KT 1/2SM -RA FG OVC003=

USA.gov is the U.S. government's official web portal to all federal, state and local government web resources and services.